Time;durP1;ratioP1;P1;durP2;ratioP2;P2;SDS_P1;SDS_P2;PMS_P1;PMS_P2;Temp;Humidity;BMP_temperature;BMP_pressure;BME280_temperature;BME280_humidity;BME280_pressure;Samples;Min_cycle;Max_cycle;Signal;HPM_P1;HPM_P2
2023/03/03 00:01:25;;;;;;;9.50;3.60;;;;;;;1.40;68.84;99584.63;81977;1296;3012767;-65
2023/03/03 00:03:51;;;;;;;10.60;3.80;;;;;;;1.35;68.98;99583.52;81855;1295;3011165;-65
2023/03/03 00:06:20;;;;;;;6.90;3.10;;;;;;;1.37;69.08;99578.14;80737;1297;3051813;-67
2023/03/03 00:08:47;;;;;;;9.70;3.80;;;;;;;1.38;68.96;99578.80;82028;1296;3013178;-65
2023/03/03 00:11:14;;;;;;;7.40;3.50;;;;;;;1.30;68.89;99577.08;82024;1296;3011200;-64
2023/03/03 00:13:47;;;;;;;9.80;3.60;;;;;;;1.37;68.82;99570.02;80748;1295;3026819;-65
2023/03/03 00:16:15;;;;;;;7.40;3.40;;;;;;;1.30;68.87;99564.79;81961;1296;3011288;-64
2023/03/03 00:18:45;;;;;;;9.30;3.30;;;;;;;1.25;69.43;99562.67;80741;1296;3048629;-65
2023/03/03 00:21:24;;;;;;;7.30;4.10;;;;;;;1.33;68.98;99558.20;82001;1296;3011355;-65
2023/03/03 00:24:24;;;;;;;9.30;3.80;;;;;;;1.24;68.76;99561.66;80765;1297;3052357;-65
2023/03/03 00:26:56;;;;;;;12.10;3.70;;;;;;;1.15;69.19;99559.77;80730;1297;3069512;-64
2023/03/03 00:29:26;;;;;;;9.20;4.20;;;;;;;1.09;69.43;99560.77;81992;1296;3011334;-67
2023/03/03 00:31:54;;;;;;;12.60;4.50;;;;;;;1.04;69.70;99553.42;80696;1296;3057688;-67
2023/03/03 00:34:25;;;;;;;12.10;3.90;;;;;;;0.90;69.96;99550.45;81883;1295;3018139;-65
2023/03/03 00:36:58;;;;;;;7.50;4.00;;;;;;;1.09;69.57;99550.23;80624;1301;3050247;-65
2023/03/03 00:39:35;;;;;;;9.40;4.40;;;;;;;0.96;69.72;99548.25;81958;1296;3011757;-66
2023/03/03 00:42:11;;;;;;;13.60;5.10;;;;;;;0.92;70.02;99543.16;80708;1300;3051663;-65
2023/03/03 00:44:56;;;;;;;6.40;3.60;;;;;;;0.79;70.58;99539.78;80633;1296;3067595;-66
2023/03/03 00:47:32;;;;;;;10.80;4.00;;;;;;;0.69;71.33;99540.51;80734;1295;3050947;-68
2023/03/03 00:50:06;;;;;;;8.20;4.40;;;;;;;0.75;71.14;99540.73;80756;1295;3056961;-68
2023/03/03 00:52:39;;;;;;;8.50;4.40;;;;;;;0.76;70.91;99535.02;80692;1296;3048337;-67
2023/03/03 00:55:06;;;;;;;8.20;4.10;;;;;;;0.70;70.83;99536.34;81974;1295;3011628;-67
2023/03/03 00:57:33;;;;;;;9.40;4.60;;;;;;;0.48;72.11;99530.73;81986;1296;3011426;-67
2023/03/03 01:00:01;;;;;;;10.90;4.40;;;;;;;0.42;72.27;99530.48;78827;1297;3051749;-69
2023/03/03 01:02:28;;;;;;;10.50;4.60;;;;;;;0.43;72.41;99524.45;81897;1297;3018106;-67
2023/03/03 01:04:55;;;;;;;12.60;6.10;;;;;;;0.58;71.58;99528.46;81967;1297;3011131;-66
2023/03/03 01:07:24;;;;;;;13.50;4.90;;;;;;;0.50;71.16;99524.67;80686;1297;3050119;-67
2023/03/03 01:09:51;;;;;;;11.20;4.90;;;;;;;0.47;71.83;99530.73;82022;1296;3011273;-67
2023/03/03 01:12:17;;;;;;;8.00;3.80;;;;;;;0.47;71.84;99528.69;81959;1298;3011268;-68
2023/03/03 01:14:48;;;;;;;18.20;5.00;;;;;;;0.47;71.82;99531.08;80687;1297;3050048;-66
2023/03/03 01:17:18;;;;;;;13.70;4.50;;;;;;;0.37;72.15;99530.57;82009;1296;3011259;-67
2023/03/03 01:19:49;;;;;;;20.50;5.60;;;;;;;0.48;71.52;99530.37;80691;1296;3051877;-67
2023/03/03 01:22:15;;;;;;;11.90;4.40;;;;;;;0.23;73.25;99529.98;81941;1296;3013411;-66
2023/03/03 01:24:42;;;;;;;9.40;3.90;;;;;;;0.30;72.48;99527.94;81869;1296;3011006;-65
2023/03/03 01:27:11;;;;;;;9.00;3.90;;;;;;;0.38;72.11;99529.35;80605;1297;3049731;-65
2023/03/03 01:29:39;;;;;;;9.70;4.70;;;;;;;0.33;72.50;99528.58;81999;1297;3011176;-65
2023/03/03 01:32:06;;;;;;;13.20;5.00;;;;;;;0.45;71.61;99523.19;81993;1297;3010986;-66
2023/03/03 01:34:34;;;;;;;10.40;4.00;;;;;;;0.39;71.54;99523.64;80720;1296;3049438;-66
2023/03/03 01:37:00;;;;;;;8.50;4.30;;;;;;;0.37;72.18;99517.13;81996;1296;3012649;-67
2023/03/03 01:39:27;;;;;;;11.50;4.20;;;;;;;0.37;71.97;99516.78;81852;1296;3011462;-66
2023/03/03 01:41:55;;;;;;;17.30;4.60;;;;;;;0.38;71.78;99512.63;80699;1296;3027031;-65
2023/03/03 01:44:21;;;;;;;8.00;3.90;;;;;;;0.31;71.86;99508.63;82009;1297;3011067;-66
2023/03/03 01:47:05;;;;;;;7.90;4.20;;;;;;;0.31;72.14;99508.45;81985;1296;3011297;-66
2023/03/03 01:49:38;;;;;;;9.60;4.10;;;;;;;0.43;71.63;99508.94;80628;1296;3051202;-66
2023/03/03 01:52:11;;;;;;;10.10;4.80;;;;;;;0.43;71.11;99498.24;81805;1295;3011243;-66
2023/03/03 01:54:42;;;;;;;14.20;5.80;;;;;;;0.48;71.35;99500.03;80687;1296;3050109;-66
2023/03/03 01:57:12;;;;;;;12.60;5.20;;;;;;;0.44;71.13;99490.98;82018;1296;3011353;-65
2023/03/03 01:59:43;;;;;;;15.10;5.00;;;;;;;0.41;71.18;99484.16;80704;1296;3048985;-66
2023/03/03 02:02:09;;;;;;;9.90;4.10;;;;;;;0.35;71.55;99486.85;81901;1296;3011086;-67
2023/03/03 02:04:36;;;;;;;9.70;4.80;;;;;;;0.39;71.50;99487.95;82018;1296;3011280;-65
2023/03/03 02:07:09;;;;;;;13.20;5.80;;;;;;;0.35;71.45;99485.29;80729;1297;3052418;-67
2023/03/03 02:09:55;;;;;;;;;;;;;;;0.33;71.84;99487.05;81903;1297;3011158;-68
2023/03/03 02:12:37;;;;;;;15.10;4.90;;;;;;;0.33;71.97;99479.31;80665;1296;3048355;-68
2023/03/03 02:15:22;;;;;;;10.90;4.90;;;;;;;0.16;72.35;99474.95;80640;1296;3054703;-69
2023/03/03 02:17:52;;;;;;;15.20;5.10;;;;;;;0.29;72.09;99470.23;80692;1297;3050656;-68
2023/03/03 02:22:13;;;;;;;13.60;5.60;;;;;;;0.32;72.18;99465.52;80469;1296;3011667;-68
2023/03/03 02:24:44;;;;;;;14.80;5.80;;;;;;;0.43;71.32;99465.15;79234;1296;3013295;-66
2023/03/03 02:27:14;;;;;;;9.60;5.60;;;;;;;0.26;71.83;99466.50;78085;1300;3050657;-65
2023/03/03 02:29:41;;;;;;;14.00;5.70;;;;;;;0.20;71.90;99469.35;79428;1298;3013820;-65
2023/03/03 02:32:08;;;;;;;11.90;5.00;;;;;;;0.22;71.72;99468.98;79350;1301;3011758;-65
2023/03/03 02:34:50;;;;;;;14.50;6.30;;;;;;;0.08;72.29;99463.19;76073;1300;3052638;-65
2023/03/03 02:37:18;;;;;;;15.10;5.70;;;;;;;0.06;72.35;99461.35;78311;1295;3057780;-65
2023/03/03 02:39:45;;;;;;;11.00;5.40;;;;;;;0.11;71.70;99459.02;79638;1296;3013129;-65
2023/03/03 02:42:24;;;;;;;11.90;5.80;;;;;;;0.03;72.07;99456.24;79664;1296;3011612;-66
2023/03/03 02:44:56;;;;;;;14.10;6.60;;;;;;;-0.09;72.52;99455.24;78472;1297;3054026;-65
2023/03/03 02:47:23;;;;;;;13.50;5.70;;;;;;;-0.18;73.11;99453.49;79676;1298;3013402;-65
2023/03/03 02:49:50;;;;;;;12.60;5.40;;;;;;;-0.12;72.71;99455.81;79513;1294;3011745;-63
2023/03/03 02:52:18;;;;;;;14.10;4.60;;;;;;;-0.25;73.19;99454.64;78325;1295;3057533;-65
2023/03/03 02:54:46;;;;;;;9.00;5.20;;;;;;;-0.20;73.14;99447.85;79717;1295;3013710;-64
2023/03/03 02:57:13;;;;;;;12.20;5.20;;;;;;;-0.23;73.02;99447.38;79524;1295;3014029;-67
2023/03/03 02:59:41;;;;;;;12.20;5.30;;;;;;;-0.25;73.06;99442.08;78360;1298;3052994;-66
2023/03/03 03:02:11;;;;;;;17.30;5.60;;;;;;;-0.13;72.72;99443.08;79713;1298;3012852;-65
2023/03/03 03:04:40;;;;;;;17.00;6.20;;;;;;;-0.32;73.21;99444.10;78890;1296;3013015;-66
2023/03/03 03:07:07;;;;;;;11.60;4.90;;;;;;;-0.33;73.39;99443.58;79597;1295;3013223;-65
2023/03/03 03:09:38;;;;;;;14.30;6.30;;;;;;;-0.22;72.92;99438.24;79162;1294;3011522;-65
2023/03/03 03:12:05;;;;;;;13.10;5.40;;;;;;;-0.27;73.14;99431.95;79495;1296;3013048;-63
2023/03/03 03:14:34;;;;;;;9.90;4.20;;;;;;;-0.33;73.38;99429.64;79673;1298;3011478;-64
2023/03/03 03:17:03;;;;;;;11.90;5.20;;;;;;;-0.30;73.64;99427.18;78106;1298;3053379;-64
2023/03/03 03:19:30;;;;;;;12.80;5.50;;;;;;;-0.43;74.49;99422.06;79525;1298;3013270;-63
2023/03/03 03:22:01;;;;;;;10.10;4.90;;;;;;;-0.37;74.03;99420.59;78892;1295;3012065;-65
2023/03/03 03:24:29;;;;;;;15.90;6.80;;;;;;;-0.44;74.28;99413.82;79626;1295;3016014;-66
2023/03/03 03:27:01;;;;;;;12.00;5.90;;;;;;;-0.47;74.19;99411.13;78365;1296;3048660;-64
2023/03/03 03:29:28;;;;;;;15.00;6.60;;;;;;;-0.48;74.11;99409.95;79608;1296;3013400;-66
2023/03/03 03:31:55;;;;;;;13.70;6.30;;;;;;;-0.47;74.15;99414.38;79583;1295;3011647;-64
2023/03/03 03:34:23;;;;;;;12.10;5.90;;;;;;;-0.43;73.67;99408.64;78307;1297;3052024;-66
2023/03/03 03:36:50;;;;;;;12.30;5.90;;;;;;;-0.53;74.14;99407.09;79647;1295;3014029;-66
2023/03/03 03:39:38;;;;;;;11.70;5.30;;;;;;;-0.53;74.28;99402.27;78218;1295;3058951;-64
2023/03/03 03:42:05;;;;;;;11.10;5.00;;;;;;;-0.59;74.50;99402.70;79450;1296;3014818;-65
2023/03/03 03:44:32;;;;;;;12.10;5.50;;;;;;;-0.51;74.09;99404.81;79447;1295;3011652;-66
2023/03/03 03:47:00;;;;;;;9.70;3.20;;;;;;;-0.56;74.94;99403.36;78250;1300;3051947;-63
2023/03/03 03:49:27;;;;;;;10.70;3.60;;;;;;;0.07;74.03;99400.54;79677;1298;3013093;-64
2023/03/03 03:51:54;;;;;;;10.30;4.20;;;;;;;1.07;71.59;99398.81;79413;1296;3013599;-64
2023/03/03 03:54:24;;;;;;;13.30;4.60;;;;;;;1.32;70.19;99396.14;78401;1295;3056258;-64
2023/03/03 03:56:53;;;;;;;10.70;4.40;;;;;;;1.23;69.98;99391.72;79574;1296;3014921;-68
2023/03/03 03:59:22;;;;;;;9.50;4.70;;;;;;;1.06;69.69;99389.67;79064;1298;3013145;-66
2023/03/03 04:01:53;;;;;;;12.20;5.60;;;;;;;0.66;70.53;99389.89;79407;1295;3011599;-65
2023/03/03 04:04:22;;;;;;;15.60;5.00;;;;;;;0.42;70.83;99388.14;78242;1297;3053722;-65
2023/03/03 04:06:50;;;;;;;13.10;5.90;;;;;;;0.39;70.88;99391.45;79498;1298;3013454;-63
2023/03/03 04:09:16;;;;;;;15.20;6.50;;;;;;;0.15;71.89;99391.95;79414;1300;3011621;-65
2023/03/03 04:11:44;;;;;;;16.10;7.10;;;;;;;0.06;71.86;99391.95;78212;1296;3056518;-66
2023/03/03 04:14:16;;;;;;;13.20;6.50;;;;;;;-0.04;72.74;99393.33;79519;1294;3011600;-66
2023/03/03 04:16:45;;;;;;;18.40;6.30;;;;;;;-0.18;72.92;99395.48;78196;1300;3053474;-65
2023/03/03 04:19:12;;;;;;;18.40;8.20;;;;;;;-0.11;72.51;99398.12;79637;1298;3013032;-65
2023/03/03 04:21:45;;;;;;;18.90;7.30;;;;;;;-0.37;73.86;99395.45;78246;1298;3053143;-63
2023/03/03 04:24:12;;;;;;;13.90;6.10;;;;;;;-0.42;74.49;99395.89;79447;1296;3013013;-65
2023/03/03 04:26:38;;;;;;;12.10;6.40;;;;;;;-0.34;73.96;99394.03;79336;1295;3013087;-64
2023/03/03 04:29:07;;;;;;;15.40;6.30;;;;;;;-0.33;73.88;99398.48;78414;1295;3050045;-66
2023/03/03 04:31:33;;;;;;;14.70;7.30;;;;;;;-0.47;74.51;99398.38;79588;1295;3018795;-64
2023/03/03 04:34:01;;;;;;;17.00;7.10;;;;;;;-0.52;75.11;99401.05;79462;1301;3011453;-65
2023/03/03 04:36:29;;;;;;;11.00;6.00;;;;;;;-0.39;74.61;99397.74;78335;1298;3053381;-64
2023/03/03 04:39:01;;;;;;;;;;;;;;;-0.48;74.92;99400.11;79256;1300;3011618;-64
2023/03/03 04:41:29;;;;;;;12.80;6.30;;;;;;;-0.48;74.93;99400.81;78211;1295;3049216;-65
2023/03/03 04:43:56;;;;;;;22.10;10.20;;;;;;;-0.44;74.91;99396.95;79424;1296;3013670;-65
2023/03/03 04:46:23;;;;;;;14.40;6.60;;;;;;;-0.55;76.00;99402.13;79546;1295;3011645;-64
2023/03/03 04:48:51;;;;;;;21.80;8.10;;;;;;;0.12;75.63;99400.23;78323;1298;3050940;-66
2023/03/03 04:51:18;;;;;;;25.40;10.60;;;;;;;1.22;73.13;99400.52;79453;1300;3018775;-65
2023/03/03 04:53:45;;;;;;;26.60;12.20;;;;;;;1.46;71.04;99403.58;79403;1298;3013205;-64
2023/03/03 04:56:15;;;;;;;28.90;10.80;;;;;;;1.11;70.75;99410.27;78413;1298;3051159;-64
2023/03/03 04:58:43;;;;;;;17.50;9.40;;;;;;;0.57;72.18;99414.38;79425;1296;3013022;-63
2023/03/03 05:01:13;;;;;;;22.40;8.80;;;;;;;0.45;72.19;99413.75;79512;1295;3011595;-66
2023/03/03 05:03:41;;;;;;;21.20;9.50;;;;;;;0.52;71.94;99412.92;78506;1296;3049736;-64
2023/03/03 05:06:08;;;;;;;17.90;8.10;;;;;;;0.16;73.13;99407.09;79224;1300;3013588;-65
2023/03/03 05:08:35;;;;;;;17.70;8.10;;;;;;;0.31;73.10;99410.76;79391;1300;3011794;-64
2023/03/03 05:11:03;;;;;;;18.00;7.20;;;;;;;0.14;73.89;99406.08;78144;1298;3028393;-66
2023/03/03 05:13:33;;;;;;;17.90;7.20;;;;;;;0.08;73.88;99413.77;79562;1300;3011653;-64
2023/03/03 05:16:02;;;;;;;16.50;7.70;;;;;;;0.11;74.22;99411.99;78918;1295;3011617;-64
2023/03/03 05:18:29;;;;;;;19.00;8.00;;;;;;;0.13;74.48;99413.69;79691;1296;3018560;-64
2023/03/03 05:20:58;;;;;;;15.80;8.20;;;;;;;0.14;74.29;99417.80;79609;1300;3011567;-65
2023/03/03 05:23:26;;;;;;;21.50;8.60;;;;;;;0.18;74.06;99419.61;78135;1298;3050731;-65
2023/03/03 05:25:54;;;;;;;18.60;8.30;;;;;;;0.28;73.64;99416.67;79312;1295;3012942;-65
2023/03/03 05:28:21;;;;;;;15.10;8.20;;;;;;;0.10;74.34;99413.91;79228;1300;3011471;-65
2023/03/03 05:30:49;;;;;;;20.30;8.90;;;;;;;0.24;74.24;99423.30;78328;1300;3050319;-64
2023/03/03 05:33:17;;;;;;;24.30;11.10;;;;;;;0.15;74.94;99419.84;79393;1295;3013007;-64
2023/03/03 05:35:44;;;;;;;21.80;10.00;;;;;;;0.22;74.82;99421.27;79215;1301;3011774;-64
2023/03/03 05:38:12;;;;;;;23.00;11.10;;;;;;;0.42;74.07;99421.56;78111;1300;3051826;-65
2023/03/03 05:40:39;;;;;;;21.90;10.00;;;;;;;0.48;73.98;99416.27;79360;1299;3011668;-65
2023/03/03 05:43:06;;;;;;;14.60;6.60;;;;;;;0.59;73.98;99414.51;79452;1295;3013347;-67
2023/03/03 05:45:34;;;;;;;16.20;6.90;;;;;;;1.38;72.92;99412.92;78217;1300;3050168;-65
2023/03/03 05:48:02;;;;;;;16.90;7.30;;;;;;;1.93;70.47;99420.89;79234;1300;3012744;-64
2023/03/03 05:50:29;;;;;;;16.50;7.90;;;;;;;2.03;69.25;99416.84;79269;1296;3013006;-64
2023/03/03 05:52:57;;;;;;;16.80;7.70;;;;;;;2.20;69.31;99419.84;78080;1301;3053356;-64
2023/03/03 05:55:25;;;;;;;17.50;7.80;;;;;;;1.72;69.59;99416.58;79402;1300;3013291;-66
2023/03/03 05:57:58;;;;;;;17.80;8.70;;;;;;;1.70;69.93;99420.08;78109;1296;3050757;-65
2023/03/03 06:00:25;;;;;;;17.90;9.60;;;;;;;1.42;70.50;99422.83;79335;1295;3013062;-64
2023/03/03 06:02:51;;;;;;;19.70;10.00;;;;;;;1.23;71.84;99416.38;79336;1300;3012952;-66
2023/03/03 06:05:19;;;;;;;22.70;11.30;;;;;;;1.32;71.72;99424.63;78042;1300;3026904;-66
2023/03/03 06:07:45;;;;;;;27.20;11.60;;;;;;;1.34;71.43;99416.30;79356;1295;3019192;-66
2023/03/03 06:10:12;;;;;;;21.10;10.60;;;;;;;1.41;70.99;99419.23;79276;1298;3013439;-65
2023/03/03 06:12:43;;;;;;;20.80;9.00;;;;;;;1.27;71.52;99422.52;78301;1295;3051129;-66
2023/03/03 06:15:10;;;;;;;24.60;9.80;;;;;;;1.09;72.29;99425.16;79548;1298;3011600;-65
2023/03/03 06:17:37;;;;;;;17.80;9.20;;;;;;;1.08;72.53;99426.37;79387;1294;3012975;-64
2023/03/03 06:20:07;;;;;;;18.10;7.80;;;;;;;1.09;72.30;99418.78;78138;1298;3050505;-65
2023/03/03 06:22:33;;;;;;;17.30;8.20;;;;;;;0.95;72.76;99415.11;79547;1298;3013001;-65
2023/03/03 06:25:04;;;;;;;14.50;7.10;;;;;;;0.86;73.55;99414.45;78853;1295;3013722;-64
2023/03/03 06:27:31;;;;;;;14.50;7.20;;;;;;;0.91;73.46;99418.30;79514;1295;3013276;-65
2023/03/03 06:30:06;;;;;;;15.70;7.50;;;;;;;0.93;73.88;99415.33;78150;1298;3057199;-64
2023/03/03 06:32:33;;;;;;;21.70;8.40;;;;;;;1.03;73.30;99415.80;79525;1294;3013045;-65
2023/03/03 06:35:00;;;;;;;18.60;8.70;;;;;;;0.98;73.44;99411.60;79375;1295;3011388;-65
2023/03/03 06:37:28;;;;;;;20.00;9.50;;;;;;;1.06;73.68;99413.66;78340;1298;3052145;-63
2023/03/03 06:39:55;;;;;;;23.90;8.90;;;;;;;1.20;73.26;99410.23;79534;1295;3013503;-66
2023/03/03 06:42:23;;;;;;;20.20;8.90;;;;;;;1.26;73.15;99414.76;79550;1295;3011656;-64
2023/03/03 06:44:51;;;;;;;21.40;9.20;;;;;;;1.28;73.20;99412.29;78107;1298;3058714;-64
2023/03/03 06:47:17;;;;;;;25.60;10.60;;;;;;;1.43;72.24;99411.26;79445;1295;3012856;-64
2023/03/03 06:49:44;;;;;;;31.70;14.10;;;;;;;1.26;73.15;99407.87;79405;1296;3013245;-63
2023/03/03 06:52:14;;;;;;;25.20;12.70;;;;;;;1.25;73.66;99406.67;78183;1295;3029703;-66
2023/03/03 06:54:41;;;;;;;30.90;13.20;;;;;;;1.26;73.40;99404.75;79680;1298;3013301;-63
2023/03/03 06:57:24;;;;;;;34.20;12.30;;;;;;;1.23;74.35;99410.34;78136;1298;3068141;-63
2023/03/03 06:59:53;;;;;;;33.10;13.40;;;;;;;1.45;73.00;99409.48;78325;1298;3053215;-65
2023/03/03 07:02:20;;;;;;;34.20;15.30;;;;;;;1.46;73.11;99410.48;79568;1295;3013052;-65
2023/03/03 07:04:46;;;;;;;33.90;14.70;;;;;;;1.54;72.72;99408.08;79334;1295;3011479;-63
2023/03/03 07:07:20;;;;;;;48.50;20.40;;;;;;;1.66;72.23;99408.09;78300;1298;3050522;-64
2023/03/03 07:09:48;;;;;;;39.40;18.30;;;;;;;1.64;72.43;99402.98;79374;1295;3012128;-65
2023/03/03 07:12:23;;;;;;;49.20;18.60;;;;;;;1.67;72.57;99396.70;78203;1302;3053589;-65
2023/03/03 07:14:54;;;;;;;;;;;;;;;1.63;72.40;99397.13;79664;1298;3011616;-64
2023/03/03 07:17:23;;;;;;;33.80;13.10;;;;;;;1.55;73.19;99398.02;78312;1294;3051263;-66
2023/03/03 07:19:50;;;;;;;40.00;15.60;;;;;;;1.67;73.17;99397.38;79570;1298;3013572;-64
2023/03/03 07:22:19;;;;;;;38.60;14.90;;;;;;;1.81;72.69;99398.23;79703;1295;3011493;-64
2023/03/03 07:24:51;;;;;;;38.60;16.60;;;;;;;1.82;72.52;99393.71;78544;1300;3051016;-65
2023/03/03 07:27:18;;;;;;;34.60;15.80;;;;;;;1.83;72.48;99395.25;79566;1295;3011594;-65
2023/03/03 07:29:46;;;;;;;34.30;15.70;;;;;;;1.68;72.71;99398.73;78353;1295;3051744;-65
2023/03/03 07:32:21;;;;;;;30.90;14.50;;;;;;;1.64;72.93;99393.30;79762;1295;3013303;-61
2023/03/03 07:34:49;;;;;;;25.80;12.80;;;;;;;1.69;73.19;99393.67;78311;1298;3052182;-65
2023/03/03 07:37:28;;;;;;;31.50;11.00;;;;;;;1.77;73.12;99390.90;79372;1295;3013621;-64
2023/03/03 07:39:56;;;;;;;26.40;10.10;;;;;;;1.81;72.77;99382.86;78312;1296;3054654;-65
2023/03/03 07:42:37;;;;;;;24.00;10.60;;;;;;;1.93;72.45;99377.17;79723;1294;3013181;-62
2023/03/03 07:45:23;;;;;;;23.00;11.00;;;;;;;1.93;72.15;99387.20;78537;1295;3054252;-64
2023/03/03 07:47:50;;;;;;;24.80;12.90;;;;;;;1.81;73.18;99387.00;79563;1298;3011341;-64
2023/03/03 07:50:20;;;;;;;28.90;13.20;;;;;;;1.75;73.31;99384.91;78889;1295;3013000;-63
2023/03/03 07:52:59;;;;;;;29.60;13.10;;;;;;;1.91;73.01;99381.56;79464;1298;3012590;-63
2023/03/03 07:55:38;;;;;;;46.10;17.00;;;;;;;1.99;72.72;99379.80;78520;1295;3050489;-65
2023/03/03 07:58:14;;;;;;;47.00;16.80;;;;;;;1.88;72.61;99376.80;78350;1300;3053205;-63
2023/03/03 08:00:51;;;;;;;53.60;16.50;;;;;;;1.97;72.62;99380.55;78211;1298;3049986;-63
2023/03/03 08:03:20;;;;;;;53.20;18.00;;;;;;;2.08;72.25;99379.03;78328;1298;3052897;-64
2023/03/03 08:05:49;;;;;;;44.10;16.50;;;;;;;2.02;72.56;99378.50;79371;1298;3011554;-61
2023/03/03 08:08:21;;;;;;;37.20;13.90;;;;;;;2.19;72.32;99374.76;78186;1300;3026303;-64
2023/03/03 08:10:51;;;;;;;32.60;12.90;;;;;;;2.24;71.59;99374.11;79377;1295;3012811;-64
2023/03/03 08:13:37;;;;;;;30.40;11.90;;;;;;;2.21;71.75;99372.30;78240;1295;3058182;-64
2023/03/03 08:16:07;;;;;;;28.90;12.50;;;;;;;2.30;71.43;99370.14;78147;1295;3050116;-64
2023/03/03 08:18:48;;;;;;;30.80;13.10;;;;;;;2.27;71.50;99369.52;79535;1298;3011390;-65
2023/03/03 08:21:18;;;;;;;25.20;12.60;;;;;;;2.18;72.02;99362.34;78291;1301;3050495;-63
2023/03/03 08:23:45;;;;;;;24.30;11.40;;;;;;;2.35;71.45;99364.98;79333;1295;3012691;-61
2023/03/03 08:26:12;;;;;;;30.90;11.60;;;;;;;2.40;71.18;99358.77;79550;1295;3013175;-63
2023/03/03 08:28:40;;;;;;;24.50;10.20;;;;;;;2.61;70.83;99352.31;78302;1299;3052514;-63
2023/03/03 08:31:08;;;;;;;25.60;11.40;;;;;;;2.56;70.59;99354.86;79665;1295;3012807;-64
2023/03/03 08:33:35;;;;;;;28.60;12.40;;;;;;;2.68;70.38;99348.79;79481;1295;3011953;-63
2023/03/03 08:36:05;;;;;;;28.50;12.60;;;;;;;2.77;70.03;99351.83;78194;1301;3049423;-64
2023/03/03 08:38:32;;;;;;;25.50;11.80;;;;;;;2.74;69.88;99343.95;79860;1298;3011344;-64
2023/03/03 08:40:59;;;;;;;25.10;11.20;;;;;;;2.69;70.18;99344.63;79576;1295;3013602;-63
2023/03/03 08:43:29;;;;;;;22.40;10.70;;;;;;;2.91;69.47;99348.96;78366;1296;3051365;-63
2023/03/03 08:45:59;;;;;;;25.70;12.00;;;;;;;2.77;69.82;99344.36;79874;1294;3012942;-64
2023/03/03 08:48:27;;;;;;;27.10;12.60;;;;;;;2.82;70.03;99341.30;78493;1296;3054307;-65
2023/03/03 08:50:54;;;;;;;22.50;10.80;;;;;;;2.92;69.79;99340.46;79466;1301;3012818;-64
2023/03/03 08:53:22;;;;;;;24.30;11.70;;;;;;;3.01;69.23;99336.20;79386;1298;3011575;-64
2023/03/03 08:55:49;;;;;;;20.50;11.20;;;;;;;2.96;69.44;99340.85;78174;1296;3068305;-63
2023/03/03 08:58:18;;;;;;;29.30;12.50;;;;;;;2.96;69.62;99337.04;79468;1295;3013015;-63
2023/03/03 09:00:50;;;;;;;24.10;11.90;;;;;;;3.11;69.45;99329.80;78274;1298;3049182;-64
2023/03/03 09:03:38;;;;;;;31.00;12.00;;;;;;;3.12;69.12;99329.60;78007;1300;3052911;-66
2023/03/03 09:06:05;;;;;;;22.90;11.40;;;;;;;3.21;68.90;99324.29;79438;1298;3019162;-63
2023/03/03 09:08:36;;;;;;;25.40;12.60;;;;;;;3.19;68.78;99318.66;78920;1295;3011641;-62
2023/03/03 09:11:10;;;;;;;23.80;11.80;;;;;;;3.33;68.62;99318.73;79469;1298;3013437;-62
2023/03/03 09:13:39;;;;;;;20.30;9.90;;;;;;;3.45;68.39;99315.90;78309;1295;3052761;-62
2023/03/03 09:16:12;;;;;;;22.70;10.00;;;;;;;3.58;68.09;99311.83;79376;1294;3013727;-63
2023/03/03 09:18:40;;;;;;;18.40;9.70;;;;;;;3.64;67.62;99307.63;78001;1300;3052595;-62
2023/03/03 09:21:25;;;;;;;24.00;10.80;;;;;;;3.75;67.21;99306.38;79539;1299;3012773;-62
2023/03/03 09:23:57;;;;;;;25.90;10.90;;;;;;;3.90;66.84;99303.09;78354;1298;3052478;-63
2023/03/03 09:26:30;;;;;;;22.90;9.30;;;;;;;4.14;66.34;99301.35;78807;1295;3011579;-63
2023/03/03 09:29:06;;;;;;;16.50;7.90;;;;;;;4.13;64.90;99299.31;79561;1301;3012524;-64
2023/03/03 09:31:39;;;;;;;15.40;8.20;;;;;;;4.05;64.75;99289.55;78288;1295;3056350;-62
2023/03/03 09:34:29;;;;;;;20.30;9.20;;;;;;;4.14;64.92;99287.32;79367;1295;3011938;-62
2023/03/03 09:36:58;;;;;;;15.40;8.40;;;;;;;4.21;64.46;99289.65;78396;1298;3053684;-62
2023/03/03 09:39:29;;;;;;;20.20;8.90;;;;;;;4.15;64.78;99288.33;79760;1295;3012937;-62
2023/03/03 09:42:12;;;;;;;24.70;10.00;;;;;;;3.99;65.87;99284.91;78265;1298;3052498;-62
2023/03/03 09:45:00;;;;;;;26.10;10.10;;;;;;;3.87;66.25;99282.55;78276;1301;3053100;-63
2023/03/03 09:47:32;;;;;;;18.70;8.80;;;;;;;3.54;67.44;99274.02;78258;1295;3068577;-63
2023/03/03 09:50:22;;;;;;;18.90;10.20;;;;;;;3.50;68.03;99270.67;79461;1296;3012188;-62
2023/03/03 09:52:56;;;;;;;25.90;11.80;;;;;;;3.51;68.57;99268.77;78204;1301;3056612;-64
2023/03/03 09:55:29;;;;;;;14.00;7.50;;;;;;;3.57;68.31;99266.30;80461;1296;3011466;-63
2023/03/03 09:58:17;;;;;;;18.80;9.30;;;;;;;3.46;67.99;99272.41;78493;1295;3053550;-64
2023/03/03 10:01:12;;;;;;;20.70;8.90;;;;;;;3.44;68.62;99270.56;78156;1295;3051000;-64
2023/03/03 10:03:57;;;;;;;19.80;9.40;;;;;;;3.33;69.03;99265.40;78226;1301;3053074;-63
2023/03/03 10:06:53;;;;;;;21.60;10.00;;;;;;;3.20;69.89;99262.38;78240;1298;3051989;-63
2023/03/03 10:09:50;;;;;;;15.50;9.20;;;;;;;3.15;69.82;99269.63;78129;1301;3069218;-63
2023/03/03 10:12:36;;;;;;;18.10;8.40;;;;;;;3.06;70.37;99269.57;78196;1300;3051990;-62
2023/03/03 10:15:16;;;;;;;21.10;9.30;;;;;;;3.31;69.44;99264.27;78223;1295;3056525;-63
2023/03/03 10:18:07;;;;;;;22.10;9.90;;;;;;;3.41;69.01;99261.15;78421;1295;3049578;-63
2023/03/03 10:20:43;;;;;;;24.20;10.60;;;;;;;3.29;69.53;99253.92;78027;1295;3054114;-63
2023/03/03 10:23:20;;;;;;;22.00;9.90;;;;;;;3.30;69.73;99245.59;78230;1298;3050473;-64
2023/03/03 10:26:04;;;;;;;17.70;9.50;;;;;;;3.51;69.05;99244.70;78172;1298;3053725;-63
2023/03/03 10:29:02;;;;;;;16.90;9.00;;;;;;;3.65;68.68;99244.35;78204;1299;3051488;-62
2023/03/03 10:31:30;;;;;;;23.10;8.70;;;;;;;3.69;68.22;99240.73;77908;1295;3069099;-64
2023/03/03 10:34:16;;;;;;;22.90;9.40;;;;;;;3.64;68.60;99235.90;79482;1295;3013038;-64
2023/03/03 10:36:46;;;;;;;20.30;8.30;;;;;;;3.65;68.75;99240.02;78206;1298;3050598;-63
2023/03/03 10:39:38;;;;;;;17.20;8.70;;;;;;;3.77;68.64;99238.55;79506;1298;3013394;-62
2023/03/03 10:42:13;;;;;;;19.50;9.00;;;;;;;3.70;68.47;99232.24;78217;1298;3051229;-63
2023/03/03 10:44:51;;;;;;;18.50;9.50;;;;;;;3.55;68.82;99228.25;79085;1295;3013268;-65
2023/03/03 10:47:40;;;;;;;18.90;8.70;;;;;;;3.52;69.04;99226.31;78196;1299;3053730;-63
2023/03/03 10:50:33;;;;;;;18.80;9.90;;;;;;;3.46;69.69;99220.96;78235;1295;3052364;-63
2023/03/03 10:53:13;;;;;;;16.00;8.70;;;;;;;3.62;69.49;99211.73;78482;1295;3069068;-63
2023/03/03 10:56:08;;;;;;;20.00;8.10;;;;;;;3.72;69.08;99203.75;78207;1299;3051893;-63
2023/03/03 10:59:07;;;;;;;19.70;8.80;;;;;;;3.73;68.64;99202.16;78199;1298;3057029;-62
2023/03/03 11:01:46;;;;;;;18.00;8.80;;;;;;;3.89;68.38;99196.36;78306;1298;3050083;-62
2023/03/03 11:04:23;;;;;;;18.20;8.30;;;;;;;4.08;67.38;99191.52;78125;1295;3053217;-62
2023/03/03 11:07:23;;;;;;;12.60;7.80;;;;;;;4.13;67.25;99186.11;78127;1298;3050988;-63
2023/03/03 11:10:21;;;;;;;20.80;8.60;;;;;;;4.14;67.13;99186.56;78345;1295;3052881;-63
2023/03/03 11:13:10;;;;;;;17.20;8.80;;;;;;;4.04;67.40;99183.67;78098;1298;3052185;-62
2023/03/03 11:15:53;;;;;;;19.40;9.20;;;;;;;4.08;67.19;99179.86;78084;1301;3069571;-63
2023/03/03 11:18:29;;;;;;;26.50;11.40;;;;;;;4.17;67.14;99175.73;78391;1298;3051996;-62
2023/03/03 11:21:17;;;;;;;27.50;10.90;;;;;;;4.06;67.01;99170.95;78300;1298;3057376;-61
2023/03/03 11:23:51;;;;;;;23.30;9.80;;;;;;;4.18;66.84;99165.98;78288;1298;3049248;-63
2023/03/03 11:26:29;;;;;;;18.20;9.40;;;;;;;4.34;66.60;99166.39;79922;1295;3011602;-62
2023/03/03 11:29:23;;;;;;;25.80;10.50;;;;;;;4.39;65.86;99162.02;78209;1298;3050589;-63
2023/03/03 11:31:50;;;;;;;17.80;8.90;;;;;;;4.28;66.12;99161.08;78158;1298;3053501;-62
2023/03/03 11:34:23;;;;;;;18.10;8.90;;;;;;;4.28;65.17;99163.51;79507;1298;3013147;-63
2023/03/03 11:36:56;;;;;;;17.30;8.50;;;;;;;4.34;64.70;99155.82;78164;1301;3051617;-63
2023/03/03 11:39:26;;;;;;;19.20;7.90;;;;;;;4.45;64.37;99158.83;79636;1296;3011585;-63